Nordic Philip — 5BZH2 — position and weather

sailwx.info

Track history (hours):
 
Tides and Currents Weather Stations Pressure Air Temp Water Temp Dewpoint Dewpoint Depression Visibility Wind Speed Wind Dir Waves Ship Positions

Nordic Philip

Last reported at 2017-Feb-25 10:33 UTC. Time now 2017-Feb-25 13:58 UTC.
Position N 56°21' E 017°01'.

Length 151 m; draft 6.6 m.

Type: Ship (hazmat cat A). MMSI: 212018000.

Date/timePositionNaut miles runAvg speedWind from/ knotsBaromVisibWave heightAir tempDewpointWater temp
2017-Feb-25 10:33N 56°21' E 017°01'1212.4
2017-Feb-25 09:33N 56°09' E 016°53'1212.0
2017-Feb-25 08:33N 56°01' E 016°38'1312.7
2017-Feb-25 07:33N 55°55' E 016°18'1312.7
2017-Feb-25 06:33N 55°49' E 015°58'1312.5
2017-Feb-25 05:33N 55°43' E 015°39'1312.6
2017-Feb-25 04:33N 55°37' E 015°19'1312.6
2017-Feb-25 03:33N 55°30' E 014°60'1312.7
2017-Feb-25 02:33N 55°24' E 014°40'1312.6
2017-Feb-25 01:33N 55°15' E 014°26'1312.6
2017-Feb-25 00:33N 55°05' E 014°12'1212.4
2017-Feb-24 23:33N 54°59' E 013°53'3812.6
2017-Feb-24 20:31N 54°46' E 012°50'2612.2
2017-Feb-24 18:24N 54°30' E 012°15'1111.3
2017-Feb-24 17:28N 54°24' E 012°00'1112.2
2017-Feb-24 16:33N 54°26' E 011°41'1312.7
2017-Feb-24 15:34N 54°32' E 011°22'1312.5
2017-Feb-24 14:33N 54°35' E 011°01'1313.0
2017-Feb-24 13:33N 54°34' E 010°39'1312.7
2017-Feb-24 12:33N 54°29' E 010°18'38 5.4
2017-Feb-24 05:31N 54°09' E 009°22'6 5.8
2017-Feb-24 04:33N 54°04' E 009°19'8 8.1
2017-Feb-24 03:33N 53°57' E 009°13'2 2.1
2017-Feb-24 02:33N 53°55' E 009°11'2 2.1
2017-Feb-24 01:33N 53°54' E 009°09'2 1.5
2017-Feb-24 00:33N 53°53' E 009°06'0 0.1
2017-Feb-23 23:33N 53°53' E 009°06'9 9.5
2017-Feb-23 22:34N 53°50' E 008°51'1716.5
2017-Feb-23 21:33N 53°59' E 008°27'1616.2
2017-Feb-23 20:33N 53°57' E 007°59'10 9.7
2017-Feb-23 19:33N 53°49' E 008°07'1313.0
2017-Feb-23 18:33N 53°40' E 008°23'7 6.7
2017-Feb-23 17:28N 53°35' E 008°32'0 0.0
2017-Feb-23 16:22N 53°35' E 008°32'0 0.0
2017-Feb-23 15:28N 53°35' E 008°32'0 0.0
2017-Feb-23 14:28N 53°35' E 008°32'0 0.0
2017-Feb-23 13:22N 53°35' E 008°32'0 0.0
2017-Feb-23 12:28N 53°35' E 008°32'0 0.0
2017-Feb-23 11:28N 53°35' E 008°32'0 0.0
2017-Feb-23 10:28N 53°35' E 008°32'0 0.0
2017-Feb-23 09:28N 53°35' E 008°32'0 0.0
2017-Feb-23 08:31N 53°35' E 008°32'0 0.0
2017-Feb-23 07:31N 53°35' E 008°32'0 0.0
2017-Feb-23 06:31N 53°35' E 008°32'0 0.0
2017-Feb-23 05:31N 53°35' E 008°32'0 0.0
2017-Feb-23 04:31N 53°35' E 008°32'0 0.0
2017-Feb-23 03:31N 53°35' E 008°32'0 0.0
2017-Feb-23 02:31N 53°35' E 008°32'0 0.0
2017-Feb-23 01:31N 53°35' E 008°32'0 0.0
2017-Feb-23 00:31N 53°35' E 008°32'0 0.0
2017-Feb-22 23:31N 53°35' E 008°32'1 1.0
2017-Feb-22 22:33N 53°35' E 008°31'1111.0
2017-Feb-22 21:33N 53°43' E 008°18'1211.6
2017-Feb-22 20:33N 53°50' E 008°03'7 6.5
2017-Feb-22 19:33N 53°56' E 007°58'1111.2
2017-Feb-22 18:33N 54°01' E 008°15'1211.8
2017-Feb-22 17:33N 53°58' E 008°35'1110.8
2017-Feb-22 16:33N 53°51' E 008°48'1413.6
2017-Feb-22 15:33N 53°53' E 009°11'1312.8
2017-Feb-22 14:34N 53°44' E 009°26'1413.8
2017-Feb-22 13:34N 53°34' E 009°42'8 7.8
2017-Feb-22 12:32N 53°32' E 009°55'0 0.0
2017-Feb-22 11:32N 53°32' E 009°55'0 0.0
2017-Feb-22 10:32N 53°32' E 009°55'0 0.0
2017-Feb-22 09:32N 53°32' E 009°55'0 0.0
2017-Feb-22 08:32N 53°32' E 009°55'0 0.0
2017-Feb-22 07:32N 53°32' E 009°55'0 0.0
2017-Feb-22 06:32N 53°32' E 009°55'0 0.0
2017-Feb-22 05:32N 53°32' E 009°55'0 0.0
2017-Feb-22 04:32N 53°32' E 009°55'0 0.0
2017-Feb-22 03:32N 53°32' E 009°55'0 0.0
2017-Feb-22 02:32N 53°32' E 009°55'0 0.0
2017-Feb-22 01:32N 53°32' E 009°55'0 0.0
2017-Feb-22 00:32N 53°32' E 009°55'0 0.0
2017-Feb-21 23:32N 53°32' E 009°55'0 0.0
2017-Feb-21 22:32N 53°32' E 009°55'0 0.0
2017-Feb-21 21:34N 53°32' E 009°55'1 0.5
2017-Feb-21 20:31N 53°32' E 009°55'0 0.0
2017-Feb-21 19:31N 53°32' E 009°55'0 0.0
2017-Feb-21 18:31N 53°32' E 009°55'0 0.0
2017-Feb-21 17:31N 53°32' E 009°55'0 0.0
2017-Feb-21 16:28N 53°32' E 009°55'0 0.0
2017-Feb-21 15:31N 53°32' E 009°55'0 0.0
2017-Feb-21 14:31N 53°32' E 009°55'2 1.8
2017-Feb-21 13:33N 53°31' E 009°56'1 0.8
2017-Feb-21 12:33N 53°30' E 009°56'0 0.0
2017-Feb-21 11:32N 53°30' E 009°56'0 0.0
2017-Feb-21 10:32N 53°30' E 009°56'0 0.0
2017-Feb-21 09:32N 53°30' E 009°56'0 0.0
2017-Feb-21 08:32N 53°30' E 009°56'0 0.0
2017-Feb-21 07:32N 53°30' E 009°56'0 0.0
2017-Feb-21 06:32N 53°30' E 009°56'1 0.9
2017-Feb-21 05:33N 53°31' E 009°56'9 9.0
2017-Feb-21 04:34N 53°34' E 009°42'1312.9
2017-Feb-21 03:34N 53°44' E 009°27'1413.7
2017-Feb-21 02:33N 53°53' E 009°10'2 1.5
2017-Feb-21 01:33N 53°54' E 009°10'3 3.2
2017-Feb-21 00:33N 53°57' E 009°14'8 8.2
2017-Feb-20 23:34N 54°04' E 009°19'50 5.5
2017-Feb-20 14:25N 54°33' E 010°29'1112.6
2017-Feb-20 13:33N 54°35' E 010°47'1313.0
2017-Feb-20 12:33N 54°36' E 011°10'1313.0
2017-Feb-20 11:33N 54°31' E 011°30'2512.3
2017-Feb-20 09:33N 54°28' E 012°12'1312.5
2017-Feb-20 08:34N 54°39' E 012°23'4312.4
2017-Feb-20 05:06N 54°57' E 013°31'712.2
2017-Feb-20 04:33N 54°59' E 013°42'1212.0
2017-Feb-20 03:32N 55°04' E 014°02'1212.1
2017-Feb-20 02:32N 55°13' E 014°15'1212.3
2017-Feb-20 01:33N 55°22' E 014°29'1212.0
2017-Feb-20 00:33N 55°30' E 014°46'1212.1
2017-Feb-19 23:34N 55°36' E 015°04'1212.2
2017-Feb-19 22:33N 55°42' E 015°23'1212.2
2017-Feb-19 21:34N 55°48' E 015°41'1212.0
2017-Feb-19 20:34N 55°54' E 015°60'1212.0
2017-Feb-19 19:34N 56°00' E 016°18'1211.9
2017-Feb-19 18:34N 56°06' E 016°37'1211.8
2017-Feb-19 17:33N 56°16' E 016°49'1312.1
2017-Feb-19 16:31N 56°28' E 016°57'  
Track history (hours):
 
Tides and Currents Weather Stations Pressure Air Temp Water Temp Dewpoint Dewpoint Depression Visibility Wind Speed Wind Dir Waves Ship Positions

Nordic Philip

Last reported at 2017-Feb-25 10:33 UTC. Time now 2017-Feb-25 13:58 UTC.
Position N 56°21' E 017°01'.

Length 151 m; draft 6.6 m.

Type: Ship (hazmat cat A). MMSI: 212018000.

Date/timePositionNaut miles runAvg speedWind from/ knotsBaromVisibWave heightAir tempDewpointWater temp
2017-Feb-25 10:33N 56°21' E 017°01'1212.4
2017-Feb-25 09:33N 56°09' E 016°53'1212.0
2017-Feb-25 08:33N 56°01' E 016°38'1312.7
2017-Feb-25 07:33N 55°55' E 016°18'1312.7
2017-Feb-25 06:33N 55°49' E 015°58'1312.5
2017-Feb-25 05:33N 55°43' E 015°39'1312.6
2017-Feb-25 04:33N 55°37' E 015°19'1312.6
2017-Feb-25 03:33N 55°30' E 014°60'1312.7
2017-Feb-25 02:33N 55°24' E 014°40'1312.6
2017-Feb-25 01:33N 55°15' E 014°26'1312.6
2017-Feb-25 00:33N 55°05' E 014°12'1212.4
2017-Feb-24 23:33N 54°59' E 013°53'3812.6
2017-Feb-24 20:31N 54°46' E 012°50'2612.2
2017-Feb-24 18:24N 54°30' E 012°15'1111.3
2017-Feb-24 17:28N 54°24' E 012°00'1112.2
2017-Feb-24 16:33N 54°26' E 011°41'1312.7
2017-Feb-24 15:34N 54°32' E 011°22'1312.5
2017-Feb-24 14:33N 54°35' E 011°01'1313.0
2017-Feb-24 13:33N 54°34' E 010°39'1312.7
2017-Feb-24 12:33N 54°29' E 010°18'38 5.4
2017-Feb-24 05:31N 54°09' E 009°22'6 5.8
2017-Feb-24 04:33N 54°04' E 009°19'8 8.1
2017-Feb-24 03:33N 53°57' E 009°13'2 2.1
2017-Feb-24 02:33N 53°55' E 009°11'2 2.1
2017-Feb-24 01:33N 53°54' E 009°09'2 1.5
2017-Feb-24 00:33N 53°53' E 009°06'0 0.1
2017-Feb-23 23:33N 53°53' E 009°06'9 9.5
2017-Feb-23 22:34N 53°50' E 008°51'1716.5
2017-Feb-23 21:33N 53°59' E 008°27'1616.2
2017-Feb-23 20:33N 53°57' E 007°59'10 9.7
2017-Feb-23 19:33N 53°49' E 008°07'1313.0
2017-Feb-23 18:33N 53°40' E 008°23'7 6.7
2017-Feb-23 17:28N 53°35' E 008°32'0 0.0
2017-Feb-23 16:22N 53°35' E 008°32'0 0.0
2017-Feb-23 15:28N 53°35' E 008°32'0 0.0
2017-Feb-23 14:28N 53°35' E 008°32'0 0.0
2017-Feb-23 13:22N 53°35' E 008°32'0 0.0
2017-Feb-23 12:28N 53°35' E 008°32'0 0.0
2017-Feb-23 11:28N 53°35' E 008°32'0 0.0
2017-Feb-23 10:28N 53°35' E 008°32'0 0.0
2017-Feb-23 09:28N 53°35' E 008°32'0 0.0
2017-Feb-23 08:31N 53°35' E 008°32'0 0.0
2017-Feb-23 07:31N 53°35' E 008°32'0 0.0
2017-Feb-23 06:31N 53°35' E 008°32'0 0.0
2017-Feb-23 05:31N 53°35' E 008°32'0 0.0
2017-Feb-23 04:31N 53°35' E 008°32'0 0.0
2017-Feb-23 03:31N 53°35' E 008°32'0 0.0
2017-Feb-23 02:31N 53°35' E 008°32'0 0.0
2017-Feb-23 01:31N 53°35' E 008°32'0 0.0
2017-Feb-23 00:31N 53°35' E 008°32'0 0.0
2017-Feb-22 23:31N 53°35' E 008°32'1 1.0
2017-Feb-22 22:33N 53°35' E 008°31'1111.0
2017-Feb-22 21:33N 53°43' E 008°18'1211.6
2017-Feb-22 20:33N 53°50' E 008°03'7 6.5
2017-Feb-22 19:33N 53°56' E 007°58'1111.2
2017-Feb-22 18:33N 54°01' E 008°15'1211.8
2017-Feb-22 17:33N 53°58' E 008°35'1110.8
2017-Feb-22 16:33N 53°51' E 008°48'1413.6
2017-Feb-22 15:33N 53°53' E 009°11'1312.8
2017-Feb-22 14:34N 53°44' E 009°26'1413.8
2017-Feb-22 13:34N 53°34' E 009°42'8 7.8
2017-Feb-22 12:32N 53°32' E 009°55'0 0.0
2017-Feb-22 11:32N 53°32' E 009°55'0 0.0
2017-Feb-22 10:32N 53°32' E 009°55'0 0.0
2017-Feb-22 09:32N 53°32' E 009°55'0 0.0
2017-Feb-22 08:32N 53°32' E 009°55'0 0.0
2017-Feb-22 07:32N 53°32' E 009°55'0 0.0
2017-Feb-22 06:32N 53°32' E 009°55'0 0.0
2017-Feb-22 05:32N 53°32' E 009°55'0 0.0
2017-Feb-22 04:32N 53°32' E 009°55'0 0.0
2017-Feb-22 03:32N 53°32' E 009°55'0 0.0
2017-Feb-22 02:32N 53°32' E 009°55'0 0.0
2017-Feb-22 01:32N 53°32' E 009°55'0 0.0
2017-Feb-22 00:32N 53°32' E 009°55'0 0.0
2017-Feb-21 23:32N 53°32' E 009°55'0 0.0
2017-Feb-21 22:32N 53°32' E 009°55'0 0.0
2017-Feb-21 21:34N 53°32' E 009°55'1 0.5
2017-Feb-21 20:31N 53°32' E 009°55'0 0.0
2017-Feb-21 19:31N 53°32' E 009°55'0 0.0
2017-Feb-21 18:31N 53°32' E 009°55'0 0.0
2017-Feb-21 17:31N 53°32' E 009°55'0 0.0
2017-Feb-21 16:28N 53°32' E 009°55'0 0.0
2017-Feb-21 15:31N 53°32' E 009°55'0 0.0
2017-Feb-21 14:31N 53°32' E 009°55'2 1.8
2017-Feb-21 13:33N 53°31' E 009°56'1 0.8
2017-Feb-21 12:33N 53°30' E 009°56'0 0.0
2017-Feb-21 11:32N 53°30' E 009°56'0 0.0
2017-Feb-21 10:32N 53°30' E 009°56'0 0.0
2017-Feb-21 09:32N 53°30' E 009°56'0 0.0
2017-Feb-21 08:32N 53°30' E 009°56'0 0.0
2017-Feb-21 07:32N 53°30' E 009°56'0 0.0
2017-Feb-21 06:32N 53°30' E 009°56'1 0.9
2017-Feb-21 05:33N 53°31' E 009°56'9 9.0
2017-Feb-21 04:34N 53°34' E 009°42'1312.9
2017-Feb-21 03:34N 53°44' E 009°27'1413.7
2017-Feb-21 02:33N 53°53' E 009°10'2 1.5
2017-Feb-21 01:33N 53°54' E 009°10'3 3.2
2017-Feb-21 00:33N 53°57' E 009°14'8 8.2
2017-Feb-20 23:34N 54°04' E 009°19'50 5.5
2017-Feb-20 14:25N 54°33' E 010°29'1112.6
2017-Feb-20 13:33N 54°35' E 010°47'1313.0
2017-Feb-20 12:33N 54°36' E 011°10'1313.0
2017-Feb-20 11:33N 54°31' E 011°30'2512.3
2017-Feb-20 09:33N 54°28' E 012°12'1312.5
2017-Feb-20 08:34N 54°39' E 012°23'4312.4
2017-Feb-20 05:06N 54°57' E 013°31'712.2
2017-Feb-20 04:33N 54°59' E 013°42'1212.0
2017-Feb-20 03:32N 55°04' E 014°02'1212.1
2017-Feb-20 02:32N 55°13' E 014°15'1212.3
2017-Feb-20 01:33N 55°22' E 014°29'1212.0
2017-Feb-20 00:33N 55°30' E 014°46'1212.1
2017-Feb-19 23:34N 55°36' E 015°04'1212.2
2017-Feb-19 22:33N 55°42' E 015°23'1212.2
2017-Feb-19 21:34N 55°48' E 015°41'1212.0
2017-Feb-19 20:34N 55°54' E 015°60'1212.0
2017-Feb-19 19:34N 56°00' E 016°18'1211.9
2017-Feb-19 18:34N 56°06' E 016°37'1211.8
2017-Feb-19 17:33N 56°16' E 016°49'1312.1
2017-Feb-19 16:31N 56°28' E 016°57'  

Dump ship's entire track history